Time;durP1;ratioP1;P1;durP2;ratioP2;P2;SDS_P1;SDS_P2;PMS_P1;PMS_P2;Temp;Humidity;BMP_temperature;BMP_pressure;BME280_temperature;BME280_humidity;BME280_pressure;Samples;Min_cycle;Max_cycle;Signal;HPM_P1;HPM_P2
2022/05/10 00:01:37;;;;;;;8.35;2.78;;;;;;;20.39;43.82;99307.94;4479136;32;20400;-80
2022/05/10 00:04:04;;;;;;;7.22;2.80;;;;;;;20.22;43.71;99302.25;4468348;32;20169;-80
2022/05/10 00:06:34;;;;;;;7.43;2.70;;;;;;;20.26;43.54;99304.62;4446096;32;20104;-80
2022/05/10 00:09:00;;;;;;;7.72;2.62;;;;;;;20.32;43.41;99304.09;4464071;32;20096;-79
2022/05/10 00:11:26;;;;;;;7.65;3.05;;;;;;;20.18;43.77;99302.63;4463444;32;20088;-81
2022/05/10 00:13:51;;;;;;;7.68;2.67;;;;;;;20.32;43.48;99309.44;4472590;32;20135;-80
2022/05/10 00:16:18;;;;;;;8.38;2.83;;;;;;;20.41;43.35;99306.81;4481963;32;20100;-81
2022/05/10 00:18:44;;;;;;;7.15;2.80;;;;;;;20.28;43.51;99311.56;4446816;32;20482;-80
2022/05/10 00:21:11;;;;;;;6.80;2.60;;;;;;;20.43;43.25;99309.38;4454670;32;20164;-80
2022/05/10 00:23:37;;;;;;;6.68;2.78;;;;;;;20.51;42.95;99309.53;4454682;32;20151;-80
2022/05/10 00:26:02;;;;;;;6.97;2.80;;;;;;;20.52;42.86;99303.22;4469050;32;20092;-80
2022/05/10 00:28:29;;;;;;;7.78;2.90;;;;;;;20.50;43.29;99299.81;4458182;32;20123;-80
2022/05/10 00:30:54;;;;;;;8.23;2.60;;;;;;;20.51;43.61;99301.50;4478714;32;20107;-81
2022/05/10 00:33:26;;;;;;;6.55;2.53;;;;;;;20.36;43.66;99290.34;4463959;32;20471;-80
2022/05/10 00:35:51;;;;;;;8.20;2.72;;;;;;;20.41;42.78;99290.75;4458402;32;20181;-81
2022/05/10 00:38:17;;;;;;;8.05;3.10;;;;;;;20.46;43.16;99286.88;4467133;32;20435;-79
2022/05/10 00:40:42;;;;;;;7.45;2.90;;;;;;;20.45;43.28;99277.97;4473250;32;20076;-81
2022/05/10 00:43:31;;;;;;;8.00;2.90;;;;;;;20.47;43.55;99273.31;4462924;32;20170;-81
2022/05/10 00:46:01;;;;;;;9.57;2.75;;;;;;;20.48;44.35;99277.72;4467582;32;20108;-81
2022/05/10 00:48:34;;;;;;;7.78;3.17;;;;;;;20.44;44.17;99270.94;4454797;32;20475;-80
2022/05/10 00:51:35;;;;;;;7.10;2.60;;;;;;;20.44;44.06;99273.62;4461360;32;20102;-80
2022/05/10 00:54:27;;;;;;;7.57;2.80;;;;;;;20.41;44.02;99268.50;4379293;32;20223;-80
2022/05/10 00:56:59;;;;;;;7.45;2.87;;;;;;;20.51;43.79;99268.56;4339224;33;20490;-80
2022/05/10 00:59:28;;;;;;;8.52;2.80;;;;;;;20.45;43.93;99269.09;4338901;33;20759;-80
2022/05/10 01:02:00;;;;;;;6.18;2.80;;;;;;;20.47;43.61;99267.97;4336417;33;20092;-80
2022/05/10 01:04:43;;;;;;;6.20;2.70;;;;;;;20.43;43.43;99264.72;4329566;33;20547;-82
2022/05/10 01:07:15;;;;;;;7.72;3.10;;;;;;;20.28;43.37;99265.22;4336724;33;20111;-80
2022/05/10 01:09:51;;;;;;;7.55;2.95;;;;;;;20.11;43.18;99264.88;4334850;33;20196;-80
2022/05/10 01:12:31;;;;;;;7.53;2.95;;;;;;;19.93;43.44;99255.75;4342088;33;20110;-81
2022/05/10 01:15:06;;;;;;;6.65;2.72;;;;;;;19.94;43.55;99265.47;4336010;33;20843;-78
2022/05/10 01:17:31;;;;;;;8.55;2.83;;;;;;;19.80;43.39;99264.00;4335344;33;20491;-79
2022/05/10 01:19:57;;;;;;;6.60;2.70;;;;;;;20.05;43.30;99257.38;4341067;33;20165;-80
2022/05/10 01:22:25;;;;;;;8.73;3.05;;;;;;;20.15;43.14;99254.75;4332692;33;20107;-80
2022/05/10 01:25:00;;;;;;;8.90;3.30;;;;;;;19.80;44.56;99248.78;4340886;33;20104;-78
2022/05/10 01:27:35;;;;;;;9.02;3.00;;;;;;;20.21;43.70;99251.53;4339864;33;20525;-79
2022/05/10 01:30:03;;;;;;;9.10;2.72;;;;;;;20.09;44.01;99253.47;4363439;32;20446;-80
2022/05/10 01:35:25;;;;;;;8.63;3.05;;;;;;;20.37;43.75;99245.69;4467948;32;20115;-79
2022/05/10 01:37:52;;;;;;;;;;;;;;;20.37;43.93;99243.84;4459901;32;20104;-79
2022/05/10 01:40:26;;;;;;;8.25;2.78;;;;;;;20.48;44.12;99247.44;4469515;32;19972;-79
2022/05/10 01:42:58;;;;;;;8.55;2.80;;;;;;;20.36;43.34;99246.69;4476323;32;20127;-78
2022/05/10 01:45:35;;;;;;;7.40;2.80;;;;;;;20.36;42.82;99246.69;4462357;32;20104;-79
2022/05/10 01:48:02;;;;;;;7.18;2.70;;;;;;;20.44;42.83;99246.84;4483241;32;20096;-79
2022/05/10 01:50:31;;;;;;;8.40;3.10;;;;;;;20.11;43.56;99245.28;4458880;32;20618;-78
2022/05/10 01:53:07;;;;;;;8.25;2.85;;;;;;;20.29;43.55;99240.19;4479544;32;20139;-79
2022/05/10 01:55:38;;;;;;;8.23;2.67;;;;;;;20.30;43.92;99240.03;4452662;32;20112;-79
2022/05/10 01:58:19;;;;;;;8.48;2.90;;;;;;;20.08;43.54;99242.88;4472771;32;20153;-78
2022/05/10 02:00:48;;;;;;;8.05;3.10;;;;;;;20.13;43.49;99236.16;4480854;32;20084;-79
2022/05/10 02:03:53;;;;;;;7.55;3.12;;;;;;;20.09;43.19;99228.53;4459667;32;20201;-79
2022/05/10 02:06:33;;;;;;;7.68;2.95;;;;;;;20.09;42.97;99242.75;4405731;32;20206;-80
2022/05/10 02:09:20;;;;;;;7.60;2.97;;;;;;;19.81;43.62;99234.44;4403002;32;20163;-79
2022/05/10 02:11:55;;;;;;;9.88;3.30;;;;;;;19.79;43.71;99233.72;4406365;32;20681;-79
2022/05/10 02:14:28;;;;;;;7.43;2.97;;;;;;;19.63;44.45;99236.00;4406129;32;20502;-78
2022/05/10 02:17:01;;;;;;;8.07;3.12;;;;;;;19.51;44.63;99235.22;4405794;32;20106;-78
2022/05/10 02:19:34;;;;;;;9.65;3.03;;;;;;;19.83;44.31;99232.47;4405540;32;20364;-79
2022/05/10 02:22:06;;;;;;;9.63;3.10;;;;;;;19.25;45.44;99235.56;4405858;32;20494;-79
2022/05/10 02:24:45;;;;;;;8.35;3.35;;;;;;;19.75;43.98;99229.63;4405734;32;20374;-78
2022/05/10 02:27:18;;;;;;;;;;;;;;;19.64;44.26;99227.84;4403895;32;20118;-78
2022/05/10 02:29:57;;;;;;;8.90;3.25;;;;;;;19.81;44.11;99225.56;4410350;32;19994;-78
2022/05/10 02:33:08;;;;;;;7.12;2.90;;;;;;;19.87;43.77;99232.22;4405833;32;20105;-78
2022/05/10 02:35:55;;;;;;;8.25;3.12;;;;;;;19.84;44.84;99230.66;4405312;32;20139;-78
2022/05/10 02:38:33;;;;;;;8.63;3.10;;;;;;;19.88;44.40;99233.94;4405912;32;20106;-79
2022/05/10 02:41:00;;;;;;;9.87;3.20;;;;;;;19.75;44.52;99228.78;4412234;32;20183;-78
2022/05/10 02:43:28;;;;;;;7.25;2.90;;;;;;;19.82;44.51;99220.09;4464732;32;20176;-78
2022/05/10 02:45:57;;;;;;;7.70;2.97;;;;;;;19.64;44.47;99227.84;4473150;32;20107;-78
2022/05/10 02:48:36;;;;;;;10.05;3.12;;;;;;;19.61;44.79;99214.72;4482618;32;20199;-79
2022/05/10 02:51:03;;;;;;;9.20;3.20;;;;;;;19.61;44.94;99217.41;4462476;32;20552;-78
2022/05/10 02:53:28;;;;;;;7.43;3.08;;;;;;;19.50;44.87;99221.97;4461850;32;20108;-79
2022/05/10 02:56:01;;;;;;;9.07;3.20;;;;;;;19.38;45.03;99232.72;4468001;32;20432;-77
2022/05/10 02:58:38;;;;;;;7.37;2.92;;;;;;;19.46;45.05;99229.41;4470056;32;20124;-77
2022/05/10 03:01:15;;;;;;;8.68;3.28;;;;;;;19.28;45.01;99226.44;4463867;32;20827;-77
2022/05/10 03:03:41;;;;;;;9.10;3.30;;;;;;;19.39;44.77;99230.87;4458997;32;20450;-77
2022/05/10 03:06:06;;;;;;;8.52;3.17;;;;;;;19.36;44.85;99223.13;4468125;32;20080;-77
2022/05/10 03:08:32;;;;;;;8.35;3.25;;;;;;;19.37;45.07;99230.16;4459005;32;20100;-78
2022/05/10 03:10:58;;;;;;;9.25;3.60;;;;;;;19.45;45.32;99222.34;4478540;32;20097;-79
2022/05/10 03:13:24;;;;;;;7.95;3.08;;;;;;;19.31;45.23;99228.84;4464385;32;20123;-78
2022/05/10 03:15:49;;;;;;;9.98;3.45;;;;;;;19.19;45.35;99222.72;4474232;32;20108;-77
2022/05/10 03:18:15;;;;;;;9.45;3.30;;;;;;;19.28;45.38;99229.13;4454898;32;20136;-78
2022/05/10 03:20:40;;;;;;;9.63;3.35;;;;;;;19.13;46.10;99215.22;4473900;32;20376;-79
2022/05/10 03:23:05;;;;;;;9.65;3.28;;;;;;;19.22;45.41;99224.31;4478581;32;20122;-78
2022/05/10 03:25:31;;;;;;;9.05;3.20;;;;;;;19.21;45.60;99227.94;4479448;32;20136;-77
2022/05/10 03:27:59;;;;;;;9.05;3.47;;;;;;;19.32;45.84;99222.53;4458279;32;20128;-78
2022/05/10 03:30:25;;;;;;;9.15;3.45;;;;;;;19.27;46.03;99227.41;4469557;32;20153;-78
2022/05/10 03:32:52;;;;;;;8.57;3.23;;;;;;;19.31;46.07;99226.19;4469718;32;20101;-78
2022/05/10 03:35:18;;;;;;;9.67;3.60;;;;;;;19.34;45.58;99225.94;4477968;32;20156;-79
2022/05/10 03:37:43;;;;;;;9.25;3.42;;;;;;;19.41;45.23;99219.09;4459642;32;20093;-78
2022/05/10 03:40:09;;;;;;;7.72;3.22;;;;;;;19.43;45.70;99217.16;4482411;32;20422;-78
2022/05/10 03:42:42;;;;;;;9.60;3.53;;;;;;;19.52;46.10;99217.34;4473342;32;20618;-79
2022/05/10 03:45:08;;;;;;;9.55;3.55;;;;;;;19.49;46.23;99218.47;4477306;32;20098;-78
2022/05/10 03:47:34;;;;;;;9.32;3.60;;;;;;;19.63;45.76;99215.44;4479208;32;20100;-78
2022/05/10 03:49:59;;;;;;;8.50;3.42;;;;;;;19.75;45.19;99218.94;4457939;32;20708;-77
2022/05/10 03:52:24;;;;;;;8.35;2.75;;;;;;;19.86;45.12;99222.50;4467544;32;20112;-79
2022/05/10 03:54:50;;;;;;;9.68;3.10;;;;;;;19.99;44.88;99217.78;4475207;32;20160;-78
2022/05/10 03:57:15;;;;;;;7.40;3.08;;;;;;;20.03;44.48;99217.41;4477012;32;20089;-78
2022/05/10 03:59:43;;;;;;;10.50;3.47;;;;;;;20.15;44.02;99209.28;4480650;32;20111;-77
2022/05/10 04:02:10;;;;;;;8.93;3.10;;;;;;;20.17;41.87;99213.50;4460162;32;20604;-78
2022/05/10 04:04:36;;;;;;;9.30;3.33;;;;;;;20.40;42.00;99211.47;4472925;32;20106;-78
2022/05/10 04:07:02;;;;;;;9.43;2.97;;;;;;;20.62;41.42;99209.59;4478059;32;20097;-78
2022/05/10 04:09:27;;;;;;;9.07;3.20;;;;;;;20.80;41.85;99212.44;4478840;32;20093;-79
2022/05/10 04:11:53;;;;;;;8.13;2.72;;;;;;;20.90;42.26;99215.13;4472684;32;20404;-79
2022/05/10 04:14:18;;;;;;;7.93;2.90;;;;;;;20.96;40.76;99212.75;4481868;32;20117;-78
2022/05/10 04:16:44;;;;;;;8.70;2.92;;;;;;;21.05;40.27;99213.72;4474286;32;20150;-78
2022/05/10 04:19:09;;;;;;;8.05;3.10;;;;;;;21.20;40.32;99215.00;4476936;32;20120;-78
2022/05/10 04:21:35;;;;;;;8.10;2.90;;;;;;;21.27;40.86;99214.47;4452464;32;20134;-78
2022/05/10 04:24:00;;;;;;;8.68;3.20;;;;;;;21.52;40.44;99208.53;4472092;32;20839;-78
2022/05/10 04:26:26;;;;;;;8.63;3.05;;;;;;;21.61;39.52;99212.19;4467334;32;20108;-78
2022/05/10 04:28:52;;;;;;;7.90;2.95;;;;;;;21.74;39.80;99215.41;4474560;32;20145;-78
2022/05/10 04:31:17;;;;;;;9.20;3.17;;;;;;;21.53;39.36;99225.47;4462109;32;20093;-79
2022/05/10 04:33:43;;;;;;;7.75;2.72;;;;;;;21.72;38.86;99221.91;4480092;32;20390;-79
2022/05/10 04:36:08;;;;;;;9.02;3.00;;;;;;;21.89;38.85;99220.31;4471629;32;20127;-79
2022/05/10 04:38:34;;;;;;;8.65;3.20;;;;;;;21.83;38.64;99221.75;4480941;32;20137;-80
2022/05/10 04:43:43;;;;;;;8.20;3.35;;;;;;;22.10;39.43;99222.81;4484815;32;20122;-79
2022/05/10 04:46:11;;;;;;;9.68;3.30;;;;;;;22.26;38.56;99222.19;4485663;32;20443;-81
2022/05/10 04:48:37;;;;;;;7.82;2.90;;;;;;;22.38;37.83;99223.69;4485516;32;20426;-81
2022/05/10 04:51:03;;;;;;;7.43;3.00;;;;;;;22.61;37.09;99229.50;4485430;32;20085;-79
2022/05/10 04:53:29;;;;;;;8.77;3.00;;;;;;;22.66;37.19;99237.13;4470705;32;20147;-80
2022/05/10 04:55:54;;;;;;;6.90;2.75;;;;;;;22.78;37.54;99231.37;4485542;32;20104;-81
2022/05/10 04:58:19;;;;;;;9.35;3.08;;;;;;;22.64;36.95;99239.97;4484579;32;20485;-79
2022/05/10 05:00:45;;;;;;;8.25;3.22;;;;;;;22.18;39.69;99242.53;4485557;32;20123;-80
2022/05/10 05:03:10;;;;;;;8.70;2.97;;;;;;;22.48;37.53;99234.38;4485142;32;20102;-79
2022/05/10 05:05:36;;;;;;;7.32;2.78;;;;;;;22.87;37.47;99235.00;4485187;32;20096;-81
2022/05/10 05:08:02;;;;;;;8.35;3.25;;;;;;;22.85;36.56;99245.06;4472008;32;20470;-81
2022/05/10 05:10:28;;;;;;;10.10;3.55;;;;;;;22.97;36.78;99245.69;4472315;32;20388;-81
2022/05/10 05:12:53;;;;;;;9.18;3.17;;;;;;;22.91;36.72;99251.69;4486440;32;20072;-81
2022/05/10 05:15:19;;;;;;;8.30;3.28;;;;;;;23.01;37.14;99244.38;4486414;32;20119;-80
2022/05/10 05:17:44;;;;;;;9.10;3.00;;;;;;;22.74;36.39;99247.97;4486098;32;20375;-80
2022/05/10 05:20:10;;;;;;;8.82;2.92;;;;;;;23.06;36.13;99247.47;4484991;32;20386;-80
2022/05/10 05:22:36;;;;;;;7.50;2.83;;;;;;;23.11;36.17;99245.19;4471866;32;20100;-80
2022/05/10 05:25:02;;;;;;;9.60;3.08;;;;;;;23.25;36.09;99245.66;4486016;32;20110;-81
2022/05/10 05:27:28;;;;;;;10.57;2.90;;;;;;;23.11;35.33;99249.72;4471624;32;20149;-81
2022/05/10 05:29:55;;;;;;;7.75;3.28;;;;;;;23.05;36.65;99267.28;4485898;32;20106;-81
2022/05/10 05:32:27;;;;;;;9.52;3.28;;;;;;;22.97;36.00;99257.28;4471645;32;20077;-81
2022/05/10 05:34:52;;;;;;;8.85;3.22;;;;;;;22.85;37.14;99258.50;4471823;32;20092;-80
2022/05/10 05:37:33;;;;;;;7.78;3.03;;;;;;;22.74;36.74;99261.37;4485784;32;20111;-81
2022/05/10 05:39:59;;;;;;;7.78;3.30;;;;;;;22.61;37.33;99263.56;4473477;32;20112;-81
2022/05/10 05:42:25;;;;;;;8.85;3.35;;;;;;;22.66;36.93;99263.97;4471690;32;20431;-81
2022/05/10 05:44:50;;;;;;;8.00;2.87;;;;;;;22.61;37.17;99261.72;4485897;32;20081;-80
2022/05/10 05:47:16;;;;;;;9.70;3.40;;;;;;;22.75;37.42;99260.38;4485655;32;20114;-81
2022/05/10 05:49:41;;;;;;;8.68;2.92;;;;;;;23.04;37.16;99262.91;4485628;32;20092;-80
2022/05/10 05:52:07;;;;;;;8.43;2.90;;;;;;;23.23;36.73;99264.59;4485391;32;20107;-79
2022/05/10 05:54:33;;;;;;;9.05;2.97;;;;;;;23.29;36.46;99258.62;4485591;32;20092;-79
2022/05/10 05:57:03;;;;;;;8.68;3.20;;;;;;;23.30;36.73;99256.78;4485578;32;20096;-82
2022/05/10 05:59:29;;;;;;;9.15;3.20;;;;;;;23.35;36.42;99254.47;4471326;32;20088;-80
2022/05/10 06:01:54;;;;;;;8.45;2.80;;;;;;;23.55;35.80;99253.31;4458193;32;20484;-82
2022/05/10 06:04:20;;;;;;;7.70;2.92;;;;;;;23.65;35.99;99255.91;4485475;32;20088;-79
2022/05/10 06:06:45;;;;;;;8.45;3.20;;;;;;;23.83;34.29;99260.44;4485599;32;20453;-79
2022/05/10 06:09:11;;;;;;;8.82;3.22;;;;;;;24.06;33.95;99260.78;4486013;32;20084;-79
2022/05/10 06:11:36;;;;;;;7.93;3.15;;;;;;;24.34;33.66;99266.81;4467240;32;20178;-79
2022/05/10 06:14:02;;;;;;;7.07;2.62;;;;;;;24.56;32.95;99272.69;4486267;32;20617;-80
2022/05/10 06:16:27;;;;;;;9.50;3.62;;;;;;;24.72;32.58;99272.72;4486275;32;20156;-79
2022/05/10 06:18:53;;;;;;;8.88;3.30;;;;;;;24.68;32.46;99271.38;4484116;32;20097;-80
2022/05/10 06:21:19;;;;;;;8.70;3.10;;;;;;;24.81;33.09;99279.00;4487278;31;20103;-80
2022/05/10 06:23:44;;;;;;;9.55;2.90;;;;;;;24.76;32.47;99263.31;4486390;32;20081;-80
2022/05/10 06:26:10;;;;;;;8.50;3.00;;;;;;;24.84;32.40;99267.88;4487752;31;20104;-80
2022/05/10 06:28:35;;;;;;;10.32;3.55;;;;;;;24.75;32.22;99266.19;4487632;31;20480;-80
2022/05/10 06:31:05;;;;;;;7.68;3.03;;;;;;;24.70;31.58;99269.34;4487659;31;20107;-80
2022/05/10 06:33:30;;;;;;;10.23;3.50;;;;;;;24.46;32.65;99273.59;4487694;31;20141;-80
2022/05/10 06:35:56;;;;;;;11.40;3.70;;;;;;;24.40;32.76;99268.87;4487638;32;20105;-79
2022/05/10 06:38:27;;;;;;;8.80;2.87;;;;;;;24.32;33.46;99261.59;4487441;32;20080;-79
2022/05/10 06:40:53;;;;;;;7.47;2.90;;;;;;;24.32;33.33;99272.38;4486349;32;20152;-80
2022/05/10 06:43:19;;;;;;;8.97;3.33;;;;;;;24.41;33.34;99259.78;4486533;32;20101;-80
2022/05/10 06:45:45;;;;;;;8.73;3.40;;;;;;;24.43;32.85;99270.37;4487560;31;20216;-80
2022/05/10 06:48:11;;;;;;;9.77;3.33;;;;;;;24.31;33.35;99272.53;4486724;32;20076;-80
2022/05/10 06:50:37;;;;;;;7.32;3.08;;;;;;;24.28;34.62;99264.75;4487759;31;20118;-80
2022/05/10 06:53:04;;;;;;;7.68;2.92;;;;;;;24.24;34.20;99266.06;4486512;32;20152;-80
2022/05/10 06:55:31;;;;;;;10.52;3.50;;;;;;;24.18;34.01;99261.34;4486452;32;20123;-80
2022/05/10 06:57:57;;;;;;;10.32;3.30;;;;;;;24.36;33.69;99258.56;4487442;31;20084;-80
2022/05/10 07:00:22;;;;;;;9.48;3.22;;;;;;;24.47;33.96;99261.84;4487693;32;20094;-80
2022/05/10 07:02:48;;;;;;;8.85;2.80;;;;;;;24.41;32.95;99267.84;4487683;31;20352;-80
2022/05/10 07:05:15;;;;;;;8.65;2.90;;;;;;;24.56;32.54;99254.66;4486573;32;20104;-80
2022/05/10 07:07:40;;;;;;;8.40;3.40;;;;;;;24.67;33.20;99261.63;4487822;31;20425;-80
2022/05/10 07:10:10;;;;;;;9.63;2.97;;;;;;;24.57;33.14;99258.19;4487762;31;20124;-80
2022/05/10 07:12:36;;;;;;;11.43;3.08;;;;;;;24.58;33.73;99258.03;4487455;31;20116;-80
2022/05/10 07:15:03;;;;;;;9.13;3.10;;;;;;;24.66;33.08;99254.53;4486269;32;20185;-80
2022/05/10 07:17:28;;;;;;;8.57;3.30;;;;;;;24.85;32.57;99256.94;4487416;32;20144;-80
2022/05/10 07:19:54;;;;;;;8.27;2.90;;;;;;;24.81;31.37;99257.44;4486847;32;20417;-80
2022/05/10 07:22:19;;;;;;;7.95;2.60;;;;;;;24.63;30.99;99257.56;4487296;32;20088;-80
2022/05/10 07:24:45;;;;;;;8.68;2.95;;;;;;;24.58;30.68;99259.91;4487463;31;20151;-80
2022/05/10 07:27:10;;;;;;;8.88;3.05;;;;;;;24.48;31.38;99260.81;4486107;32;20157;-80
2022/05/10 07:29:35;;;;;;;6.93;2.60;;;;;;;24.62;31.52;99261.25;4487226;32;20128;-80
2022/05/10 07:32:01;;;;;;;7.03;2.60;;;;;;;24.70;30.28;99266.66;4487294;32;20085;-80
2022/05/10 07:34:27;;;;;;;6.55;2.60;;;;;;;24.68;30.32;99261.44;4487241;32;20412;-80
2022/05/10 07:36:52;;;;;;;8.73;2.90;;;;;;;24.95;30.65;99264.06;4487327;31;20080;-80
2022/05/10 07:39:18;;;;;;;9.70;2.95;;;;;;;24.92;30.32;99276.00;4485796;32;20125;-80
2022/05/10 07:41:44;;;;;;;8.50;2.97;;;;;;;24.99;29.65;99268.09;4487105;31;20092;-80
2022/05/10 07:44:10;;;;;;;7.75;2.90;;;;;;;25.06;30.71;99269.97;4487294;31;20084;-80
2022/05/10 07:46:36;;;;;;;9.02;3.17;;;;;;;25.28;31.08;99265.84;4485931;32;20092;-80
2022/05/10 07:49:02;;;;;;;8.93;3.00;;;;;;;25.24;30.36;99256.38;4486013;32;20149;-80
2022/05/10 07:51:28;;;;;;;7.68;2.80;;;;;;;25.13;30.37;99264.78;4487235;31;20721;-80
2022/05/10 07:53:53;;;;;;;7.72;2.72;;;;;;;25.09;29.91;99269.66;4487191;32;20093;-80
2022/05/10 07:56:19;;;;;;;7.55;2.45;;;;;;;25.19;30.20;99269.50;4486166;32;20106;-79
2022/05/10 07:58:44;;;;;;;7.82;2.60;;;;;;;25.12;29.68;99258.53;4487328;32;20313;-80
2022/05/10 08:01:10;;;;;;;7.18;2.60;;;;;;;24.78;29.45;99266.69;4485718;32;20131;-80
2022/05/10 08:03:36;;;;;;;5.82;2.42;;;;;;;25.02;28.47;99257.84;4485942;32;20180;-80
2022/05/10 08:06:02;;;;;;;7.03;2.50;;;;;;;25.15;27.67;99267.28;4487223;31;20107;-80
2022/05/10 08:08:33;;;;;;;10.02;2.83;;;;;;;25.13;27.37;99259.38;4486220;32;20092;-80
2022/05/10 08:10:59;;;;;;;7.87;3.00;;;;;;;25.02;27.98;99263.22;4487396;31;20409;-80
2022/05/10 08:13:27;;;;;;;7.20;2.50;;;;;;;25.10;28.98;99252.47;4487251;31;20101;-80
2022/05/10 08:15:54;;;;;;;7.65;2.80;;;;;;;25.14;29.44;99255.66;4486070;32;20119;-80
2022/05/10 08:18:20;;;;;;;9.18;2.80;;;;;;;25.21;28.79;99251.31;4486058;32;20156;-80
2022/05/10 08:20:46;;;;;;;8.07;2.67;;;;;;;25.19;29.12;99253.31;4485966;32;20171;-80
2022/05/10 08:23:23;;;;;;;7.50;2.75;;;;;;;25.19;27.56;99247.06;4487342;31;20114;-80
2022/05/10 08:25:50;;;;;;;9.18;2.70;;;;;;;25.04;28.33;99257.69;4486107;32;20110;-80
2022/05/10 08:28:15;;;;;;;9.27;2.92;;;;;;;25.10;28.26;99254.31;4485725;32;20103;-80
2022/05/10 08:30:43;;;;;;;10.35;2.92;;;;;;;25.15;28.68;99246.59;4485506;32;20097;-80
2022/05/10 08:33:10;;;;;;;8.90;2.92;;;;;;;25.04;29.49;99236.13;4484737;32;20126;-80
2022/05/10 08:35:37;;;;;;;9.05;3.12;;;;;;;25.17;29.73;99247.25;4486796;32;20466;-80
2022/05/10 08:38:03;;;;;;;7.72;2.80;;;;;;;25.24;29.00;99239.37;4472398;32;20152;-80
2022/05/10 08:40:31;;;;;;;8.73;2.80;;;;;;;25.20;29.20;99244.22;4486769;31;20076;-80
2022/05/10 08:43:03;;;;;;;12.07;3.10;;;;;;;25.22;30.16;99247.63;4485477;32;20097;-80
2022/05/10 08:45:29;;;;;;;9.10;2.90;;;;;;;25.34;29.35;99237.34;4486719;31;20245;-80
2022/05/10 08:47:54;;;;;;;8.10;2.97;;;;;;;25.43;29.21;99239.03;4485437;32;20117;-80
2022/05/10 08:50:21;;;;;;;9.98;3.28;;;;;;;25.43;29.88;99240.91;4486650;32;20089;-80
2022/05/10 08:52:48;;;;;;;10.25;4.03;;;;;;;25.52;29.15;99237.19;4486767;31;20084;-80
2022/05/10 08:55:21;;;;;;;8.15;3.08;;;;;;;25.58;29.10;99230.28;4486782;31;20391;-80
2022/05/10 08:58:13;;;;;;;9.52;3.40;;;;;;;25.53;29.21;99229.94;4485406;32;20099;-80
2022/05/10 09:00:45;;;;;;;8.98;3.72;;;;;;;25.70;29.63;99227.06;4422243;32;20105;-80
2022/05/10 09:03:22;;;;;;;8.90;2.80;;;;;;;25.79;30.06;99222.50;4409593;32;20098;-80
2022/05/10 09:05:49;;;;;;;9.47;3.30;;;;;;;25.75;30.55;99231.97;4422174;32;20105;-80
2022/05/10 09:08:32;;;;;;;15.57;3.90;;;;;;;25.96;29.90;99223.34;4421991;32;20113;-80
2022/05/10 09:11:01;;;;;;;10.75;3.70;;;;;;;26.09;29.93;99222.78;4409192;32;20204;-80
2022/05/10 09:13:26;;;;;;;9.55;3.75;;;;;;;26.24;29.00;99217.53;4409386;32;20124;-80
2022/05/10 09:16:03;;;;;;;9.98;3.53;;;;;;;26.40;28.77;99219.31;4422000;32;20113;-80
2022/05/10 09:18:31;;;;;;;9.35;3.17;;;;;;;26.41;29.12;99215.63;4421825;32;20128;-80
2022/05/10 09:21:08;;;;;;;8.85;2.90;;;;;;;26.23;30.33;99211.28;4408962;32;20098;-80
2022/05/10 09:24:01;;;;;;;7.32;2.70;;;;;;;26.52;30.68;99214.38;4421894;32;20575;-80
2022/05/10 09:26:49;;;;;;;9.80;3.10;;;;;;;26.58;30.18;99219.94;4421863;32;20137;-80
2022/05/10 09:29:32;;;;;;;7.93;3.12;;;;;;;26.63;29.44;99217.53;4421750;32;20267;-80
2022/05/10 09:35:00;;;;;;;7.53;3.05;;;;;;;26.50;29.50;99222.63;4410927;32;20171;-80
2022/05/10 09:37:52;;;;;;;9.00;3.40;;;;;;;26.86;28.87;99217.59;4437774;32;20072;-80
2022/05/10 09:40:19;;;;;;;9.25;3.10;;;;;;;26.90;28.47;99219.94;4485956;31;20064;-80
2022/05/10 09:42:48;;;;;;;8.70;2.78;;;;;;;27.06;28.60;99217.13;4484921;32;20157;-80
2022/05/10 09:45:16;;;;;;;8.07;3.08;;;;;;;27.08;29.39;99215.06;4487021;32;20135;-80
2022/05/10 09:47:58;;;;;;;10.75;3.83;;;;;;;27.20;29.21;99213.66;4488153;31;20139;-80
2022/05/10 09:50:33;;;;;;;9.10;3.22;;;;;;;27.36;29.02;99212.72;4488032;31;20147;-80
2022/05/10 09:53:09;;;;;;;7.80;2.72;;;;;;;27.40;27.81;99213.19;4487171;32;20463;-80
2022/05/10 09:55:35;;;;;;;9.00;2.83;;;;;;;27.15;28.18;99213.34;4486768;32;20096;-80
2022/05/10 09:58:19;;;;;;;8.10;2.85;;;;;;;26.97;28.74;99219.06;4487925;32;20125;-80
2022/05/10 10:00:55;;;;;;;8.68;3.10;;;;;;;26.60;29.19;99209.81;4486865;32;20072;-80
2022/05/10 10:03:38;;;;;;;8.40;3.00;;;;;;;26.78;29.96;99206.84;4488022;31;20089;-80
2022/05/10 10:06:21;;;;;;;7.90;2.70;;;;;;;27.03;28.76;99198.56;4473563;32;20466;-80
2022/05/10 10:08:55;;;;;;;9.20;3.10;;;;;;;27.11;27.95;99198.50;4487952;31;20126;-80
2022/05/10 10:11:26;;;;;;;7.47;2.85;;;;;;;27.18;28.14;99195.94;4486779;32;20072;-80
2022/05/10 10:13:56;;;;;;;8.75;2.95;;;;;;;27.32;28.31;99191.63;4486668;32;20085;-80
2022/05/10 10:16:27;;;;;;;10.20;3.00;;;;;;;27.11;28.78;99192.25;4487887;31;20486;-80
2022/05/10 10:18:56;;;;;;;8.32;3.00;;;;;;;26.95;29.26;99195.94;4486747;32;20147;-80
2022/05/10 10:21:34;;;;;;;7.10;3.05;;;;;;;26.95;30.14;99193.22;4486514;32;20124;-80
2022/05/10 10:24:01;;;;;;;7.60;2.95;;;;;;;26.73;29.80;99193.00;4487922;31;20519;-80
2022/05/10 10:26:45;;;;;;;9.02;3.15;;;;;;;26.49;30.03;99194.78;4486598;32;20463;-81
2022/05/10 10:29:54;;;;;;;8.13;2.95;;;;;;;26.48;30.45;99198.53;4486718;32;20345;-81
2022/05/10 10:32:23;;;;;;;8.40;3.03;;;;;;;26.43;29.71;99192.81;4410563;32;20171;-80
2022/05/10 10:34:52;;;;;;;8.52;2.60;;;;;;;26.41;29.54;99194.84;4410617;32;20106;-80
2022/05/10 10:37:35;;;;;;;7.93;2.90;;;;;;;26.42;29.93;99185.69;4410708;32;20155;-80
2022/05/10 10:40:10;;;;;;;9.77;3.47;;;;;;;26.43;30.37;99187.41;4410372;32;20073;-80
2022/05/10 10:42:41;;;;;;;8.13;3.08;;;;;;;26.40;30.29;99181.50;4423288;32;20337;-80
2022/05/10 10:45:14;;;;;;;8.45;3.17;;;;;;;26.46;30.07;99175.38;4423360;32;20216;-80
2022/05/10 10:47:56;;;;;;;8.20;3.40;;;;;;;26.54;30.26;99177.22;4423382;32;20124;-80
2022/05/10 10:50:28;;;;;;;8.48;2.83;;;;;;;26.70;29.85;99170.91;4423394;32;20115;-80
2022/05/10 10:52:56;;;;;;;8.45;2.80;;;;;;;26.84;29.42;99167.44;4423279;32;20097;-80
2022/05/10 10:55:26;;;;;;;11.23;3.70;;;;;;;27.02;30.35;99165.28;4410103;32;20150;-80
2022/05/10 10:58:01;;;;;;;8.30;3.35;;;;;;;27.08;30.29;99161.00;4410753;32;20543;-80
2022/05/10 11:00:35;;;;;;;10.93;3.35;;;;;;;27.30;29.80;99155.81;4410360;32;20437;-80
2022/05/10 11:03:06;;;;;;;8.77;3.47;;;;;;;27.25;30.32;99154.50;4410833;32;20082;-80
2022/05/10 11:05:52;;;;;;;9.90;3.58;;;;;;;27.24;30.57;99160.03;4437965;32;20112;-80
2022/05/10 11:08:36;;;;;;;9.70;3.53;;;;;;;27.24;31.16;99154.63;4486277;32;20092;-80
2022/05/10 11:11:13;;;;;;;9.48;3.70;;;;;;;27.29;30.45;99149.53;4487533;32;20076;-80
2022/05/10 11:14:16;;;;;;;9.98;3.60;;;;;;;27.14;30.22;99144.06;4487437;31;20084;-80
2022/05/10 11:17:06;;;;;;;9.57;3.37;;;;;;;27.05;31.05;99151.38;4487689;32;20109;-80
2022/05/10 11:19:37;;;;;;;9.55;3.60;;;;;;;26.81;31.62;99155.13;4487413;32;20107;-80
2022/05/10 11:22:27;;;;;;;9.85;3.60;;;;;;;26.59;32.43;99161.34;4487396;32;20143;-80
2022/05/10 11:25:11;;;;;;;11.23;3.62;;;;;;;26.53;31.69;99164.72;4487639;32;20116;-80
2022/05/10 11:27:42;;;;;;;13.30;3.92;;;;;;;26.44;31.93;99159.38;4487469;32;20140;-80
2022/05/10 11:30:14;;;;;;;8.68;3.90;;;;;;;26.41;33.52;99148.91;4487357;31;20084;-80
2022/05/10 11:32:51;;;;;;;10.32;3.83;;;;;;;26.44;33.96;99151.28;4486247;32;20152;-80
2022/05/10 11:35:39;;;;;;;9.85;3.65;;;;;;;26.44;33.93;99153.97;4487314;31;20119;-80
2022/05/10 11:38:13;;;;;;;9.35;3.35;;;;;;;26.40;32.66;99152.63;4487074;32;20116;-80
2022/05/10 11:41:01;;;;;;;7.40;3.08;;;;;;;26.26;31.00;99148.81;4486115;32;20100;-80
2022/05/10 11:43:32;;;;;;;7.87;2.95;;;;;;;26.27;31.38;99146.97;4487648;31;20092;-80
2022/05/10 11:46:16;;;;;;;9.80;3.67;;;;;;;26.10;33.51;99138.09;4487249;32;20072;-80
2022/05/10 11:49:21;;;;;;;9.55;3.25;;;;;;;25.86;34.60;99145.25;4485972;32;20096;-80
2022/05/10 11:51:53;;;;;;;7.85;3.20;;;;;;;25.99;34.86;99133.06;4482799;32;20118;-80
2022/05/10 11:54:53;;;;;;;8.48;3.42;;;;;;;25.75;34.23;99131.25;4486046;32;20168;-80
2022/05/10 11:57:20;;;;;;;6.87;3.15;;;;;;;25.73;34.37;99131.44;4487201;32;20108;-80
2022/05/10 11:59:46;;;;;;;9.57;3.00;;;;;;;25.48;34.84;99131.50;4486172;32;20088;-80